createdAt,value
2018-08-17T00:01:05.671Z,100808.04
2018-08-17T00:03:31.669Z,100806.91
2018-08-17T00:05:57.654Z,100814.38
2018-08-17T00:08:23.666Z,100813.05
2018-08-17T00:10:49.639Z,100812.54
2018-08-17T00:13:15.627Z,100807.56
2018-08-17T00:15:41.584Z,100810.53
2018-08-17T00:18:07.550Z,100811.72
2018-08-17T00:20:33.545Z,100806.23
2018-08-17T00:22:59.537Z,100806.91
2018-08-17T00:25:25.526Z,100805.53
2018-08-17T00:27:51.517Z,100806.55
2018-08-17T00:30:17.522Z,100804.41
2018-08-17T00:32:43.864Z,100803.23
2018-08-17T00:35:09.815Z,100803.39
2018-08-17T00:37:35.831Z,100794.95
2018-08-17T00:40:01.807Z,100791.13
2018-08-17T00:42:27.808Z,100799.11
2018-08-17T00:44:53.770Z,100790.00
2018-08-17T00:47:19.732Z,100798.14
2018-08-17T00:49:45.763Z,100797.16
2018-08-17T00:52:11.721Z,100801.62
2018-08-17T00:54:37.696Z,100803.62
2018-08-17T00:57:03.664Z,100806.09
2018-08-17T00:59:29.670Z,100804.94
2018-08-17T01:01:55.667Z,100803.45
2018-08-17T01:04:21.657Z,100808.47
2018-08-17T01:06:47.622Z,100809.64
2018-08-17T01:09:13.609Z,100815.41
2018-08-17T01:11:39.576Z,100817.27
2018-08-17T01:14:05.556Z,100820.08
2018-08-17T01:16:31.560Z,100815.27
2018-08-17T01:18:57.596Z,100812.62
2018-08-17T01:21:23.602Z,100822.88
2018-08-17T01:23:49.611Z,100825.06
2018-08-17T01:26:15.653Z,100821.08
2018-08-17T01:28:41.609Z,100829.53
2018-08-17T01:31:07.584Z,100827.23
2018-08-17T01:33:33.549Z,100832.70
2018-08-17T01:35:59.552Z,100833.41
2018-08-17T01:38:25.551Z,100832.38
2018-08-17T01:40:51.545Z,100843.53
2018-08-17T01:43:17.544Z,100835.72
2018-08-17T01:48:15.923Z,100846.19
2018-08-17T01:50:41.901Z,100850.17
2018-08-17T01:53:07.866Z,100854.83
2018-08-17T01:55:33.852Z,100848.84
2018-08-17T01:57:59.872Z,100851.82
2018-08-17T02:00:26.513Z,100857.49
2018-08-17T02:02:52.516Z,100857.49
2018-08-17T02:05:18.524Z,100867.11
2018-08-17T02:07:44.480Z,100882.73
2018-08-17T02:10:10.442Z,100888.37
2018-08-17T02:12:36.419Z,100885.23
2018-08-17T02:15:02.386Z,100891.19
2018-08-17T02:17:28.350Z,100909.31
2018-08-17T02:19:54.348Z,100903.84
2018-08-17T02:22:20.332Z,100914.48
2018-08-17T02:24:46.329Z,100919.60
2018-08-17T02:27:12.287Z,100912.80
2018-08-17T02:29:38.276Z,100916.44
2018-08-17T02:32:04.269Z,100920.93
2018-08-17T02:34:30.254Z,100925.58
2018-08-17T02:36:56.400Z,100927.26
2018-08-17T02:39:22.367Z,100938.87
2018-08-17T02:41:48.369Z,100933.09
2018-08-17T02:44:14.326Z,100924.45
2018-08-17T02:46:40.564Z,100917.45
2018-08-17T02:49:06.518Z,100934.22
2018-08-17T02:51:32.476Z,100947.00
2018-08-17T02:53:58.464Z,100955.33
2018-08-17T02:56:24.449Z,100943.36
2018-08-17T02:58:50.414Z,100940.87
2018-08-17T03:01:16.381Z,100936.56
2018-08-17T03:03:42.376Z,100937.23
2018-08-17T03:06:08.534Z,100929.41
2018-08-17T03:08:34.511Z,100925.27
2018-08-17T03:11:00.498Z,100922.62
2018-08-17T03:13:26.471Z,100923.62
2018-08-17T03:15:52.426Z,100930.27
2018-08-17T03:18:18.405Z,100924.09
2018-08-17T03:20:44.368Z,100918.63
2018-08-17T03:23:10.404Z,100899.50
2018-08-17T03:25:36.380Z,100889.08
2018-08-17T03:28:02.669Z,100875.78
2018-08-17T03:30:28.708Z,100864.45
2018-08-17T03:32:54.670Z,100858.31
2018-08-17T03:35:20.728Z,100859.48
2018-08-17T03:37:46.688Z,100855.50
2018-08-17T03:40:12.674Z,100866.44
2018-08-17T03:42:38.691Z,100865.62
2018-08-17T03:45:04.642Z,100871.09
2018-08-17T03:47:30.627Z,100887.23
2018-08-17T03:49:56.629Z,100893.53
2018-08-17T03:52:22.609Z,100903.19
2018-08-17T03:54:48.580Z,100913.62
2018-08-17T03:57:14.554Z,100931.91
2018-08-17T03:59:40.743Z,100943.21
2018-08-17T04:02:06.763Z,100963.97
2018-08-17T04:04:32.748Z,100983.43
2018-08-17T04:06:59.027Z,100995.04
2018-08-17T04:09:25.042Z,101000.67
2018-08-17T04:11:51.090Z,101008.33
2018-08-17T04:14:17.125Z,101014.16
2018-08-17T04:16:43.131Z,101014.81
2018-08-17T04:19:09.125Z,101026.44
2018-08-17T04:21:35.081Z,101025.60
2018-08-17T04:24:01.072Z,101026.27
2018-08-17T04:26:27.062Z,101025.45
2018-08-17T04:28:53.044Z,101026.43
2018-08-17T04:31:19.087Z,101035.58
2018-08-17T04:33:45.149Z,101030.26
2018-08-17T04:36:11.170Z,101026.80
2018-08-17T04:38:37.138Z,101040.73
2018-08-17T04:41:03.183Z,101044.91
2018-08-17T04:43:29.181Z,101043.89
2018-08-17T04:45:55.134Z,101050.54
2018-08-17T04:48:21.129Z,101040.57
2018-08-17T04:50:47.089Z,101037.09
2018-08-17T04:53:13.071Z,101035.60
2018-08-17T04:55:39.087Z,101028.95
2018-08-17T04:58:05.068Z,101033.60
2018-08-17T05:00:31.042Z,101041.23
2018-08-17T05:02:57.020Z,101036.93
2018-08-17T05:05:22.996Z,101037.08
2018-08-17T05:07:49.009Z,101043.23
2018-08-17T05:10:15.006Z,101048.70
2018-08-17T05:12:41.013Z,101060.66
2018-08-17T05:15:07.081Z,101065.50
2018-08-17T05:17:33.096Z,101067.49
2018-08-17T05:19:59.253Z,101071.31
2018-08-17T05:22:25.243Z,101057.52
2018-08-17T05:24:51.248Z,101065.50
2018-08-17T05:27:17.243Z,101068.81
2018-08-17T05:29:43.234Z,101077.28
2018-08-17T05:32:09.218Z,101068.48
2018-08-17T05:34:35.204Z,101077.63
2018-08-17T05:37:01.156Z,101081.27
2018-08-17T05:39:27.143Z,101090.56
2018-08-17T05:41:53.363Z,101095.72
2018-08-17T05:44:19.339Z,101106.86
2018-08-17T05:46:45.315Z,101120.30
2018-08-17T05:49:11.273Z,101128.77
2018-08-17T05:51:37.321Z,101151.87
2018-08-17T05:54:03.279Z,101156.52
2018-08-17T05:56:29.281Z,101164.48
2018-08-17T05:58:55.248Z,101156.67
2018-08-17T06:01:21.265Z,101154.17
2018-08-17T06:03:47.344Z,101168.63
2018-08-17T06:06:13.328Z,101212.81
2018-08-17T06:08:39.312Z,101258.38
2018-08-17T06:11:05.391Z,101283.77
2018-08-17T06:13:31.295Z,101297.89
2018-08-17T06:15:57.277Z,101276.80
2018-08-17T06:18:23.300Z,101190.24
2018-08-17T06:20:49.284Z,101098.39
2018-08-17T06:23:15.272Z,101097.53
2018-08-17T06:25:41.249Z,101119.30
2018-08-17T06:28:07.250Z,101127.27
2018-08-17T06:30:33.237Z,101120.80
2018-08-17T06:32:59.235Z,101108.34
2018-08-17T06:35:25.260Z,101104.84
2018-08-17T06:37:51.236Z,101104.52
2018-08-17T06:40:17.237Z,101113.98
2018-08-17T06:42:43.214Z,101114.84
2018-08-17T06:45:09.336Z,101127.95
2018-08-17T06:47:35.410Z,101143.90
2018-08-17T06:50:01.441Z,101154.19
2018-08-17T06:52:27.413Z,101162.34
2018-08-17T06:54:53.472Z,101162.50
2018-08-17T06:57:19.507Z,101154.19
2018-08-17T06:59:45.428Z,101162.50
2018-08-17T07:02:11.488Z,101158.34
2018-08-17T07:04:37.501Z,101158.34
2018-08-17T07:07:03.537Z,101166.66
2018-08-17T07:09:29.574Z,101166.81
2018-08-17T07:11:55.527Z,101165.00
2018-08-17T07:14:21.514Z,101161.83
2018-08-17T07:16:47.549Z,101145.90
2018-08-17T07:19:13.460Z,101162.69
2018-08-17T07:21:39.495Z,101159.19
2018-08-17T07:24:05.399Z,101132.59
2018-08-17T07:26:31.388Z,101145.41
2018-08-17T07:28:57.404Z,101143.23
2018-08-17T07:31:23.634Z,101136.43
2018-08-17T07:33:49.591Z,101152.05
2018-08-17T07:36:15.577Z,101142.73
2018-08-17T07:38:41.919Z,101144.56
2018-08-17T07:41:07.925Z,101138.41
2018-08-17T07:43:33.935Z,101125.97
2018-08-17T07:45:59.988Z,101123.95
2018-08-17T07:48:25.998Z,101125.45
2018-08-17T07:50:52.107Z,101125.78
2018-08-17T07:53:18.074Z,101128.13
2018-08-17T07:55:44.069Z,101142.39
2018-08-17T07:58:10.168Z,101158.70
2018-08-17T08:00:36.135Z,101175.63
2018-08-17T08:03:02.132Z,101175.11
2018-08-17T08:05:28.151Z,101179.27
2018-08-17T08:07:54.111Z,101189.08
2018-08-17T08:10:20.101Z,101193.89
2018-08-17T08:12:46.106Z,101181.76
2018-08-17T08:15:12.117Z,101183.91
2018-08-17T08:17:38.102Z,101181.09
2018-08-17T08:20:04.093Z,101169.31
2018-08-17T08:22:30.107Z,101166.48
2018-08-17T08:24:56.059Z,101181.76
2018-08-17T08:27:23.134Z,101195.91
2018-08-17T08:29:49.126Z,101201.56
2018-08-17T08:32:15.136Z,101212.36
2018-08-17T08:34:41.115Z,101196.88
2018-08-17T08:37:07.184Z,101210.19
2018-08-17T08:39:33.193Z,101207.20
2018-08-17T08:41:59.309Z,101205.38
2018-08-17T08:44:25.351Z,101207.04
2018-08-17T08:46:51.358Z,101216.18
2018-08-17T08:49:17.356Z,101218.33
2018-08-17T08:51:43.366Z,101225.97
2018-08-17T08:54:09.371Z,101232.94
2018-08-17T08:56:36.413Z,101236.60
2018-08-17T08:59:02.407Z,101243.08
2018-08-17T09:01:28.393Z,101242.24
2018-08-17T09:03:54.432Z,101250.22
2018-08-17T09:06:20.520Z,101256.52
2018-08-17T09:08:46.506Z,101270.34
2018-08-17T09:11:12.501Z,101273.17
2018-08-17T09:13:38.522Z,101272.49
2018-08-17T09:16:04.493Z,101275.84
2018-08-17T09:18:30.485Z,101278.00
2018-08-17T09:20:57.499Z,101275.83
2018-08-17T09:23:23.446Z,101278.84
2018-08-17T09:25:49.474Z,101275.83
2018-08-17T09:28:15.439Z,101271.03
2018-08-17T09:30:41.730Z,101267.87
2018-08-17T09:33:07.710Z,101268.86
2018-08-17T09:35:33.740Z,101274.53
2018-08-17T09:37:59.728Z,101275.16
2018-08-17T09:40:25.943Z,101271.18
2018-08-17T09:42:51.928Z,101275.48
2018-08-17T09:45:18.905Z,101269.33
2018-08-17T09:47:44.957Z,101273.19
2018-08-17T09:50:10.991Z,101278.16
2018-08-17T09:52:36.998Z,101283.44
2018-08-17T09:55:02.968Z,101285.95
2018-08-17T09:57:28.969Z,101282.98
2018-08-17T09:59:54.981Z,101289.11
2018-08-17T10:02:22.029Z,101286.12
2018-08-17T10:04:48.052Z,101290.78
2018-08-17T10:07:14.057Z,101288.46
2018-08-17T10:09:40.026Z,101291.95
2018-08-17T10:12:06.577Z,101294.77
2018-08-17T10:14:33.640Z,101289.45
2018-08-17T10:16:59.631Z,101291.12
2018-08-17T10:19:25.627Z,101282.79
2018-08-17T10:21:51.950Z,101283.94
2018-08-17T10:24:17.655Z,101290.61
2018-08-17T10:26:43.899Z,101296.25
2018-08-17T10:29:09.906Z,101294.73
2018-08-17T10:31:35.947Z,101293.08
2018-08-17T10:34:02.332Z,101298.91
2018-08-17T10:36:28.231Z,101302.05
2018-08-17T10:38:54.212Z,101302.21
2018-08-17T10:41:20.176Z,101307.52
2018-08-17T10:43:46.167Z,101310.20
2018-08-17T10:46:12.156Z,101314.36
2018-08-17T10:48:39.263Z,101312.36
2018-08-17T10:51:05.295Z,101305.39
2018-08-17T10:53:31.285Z,101305.70
2018-08-17T10:55:57.325Z,101309.20
2018-08-17T10:58:23.292Z,101312.03
2018-08-17T11:00:49.282Z,101314.01
2018-08-17T11:03:15.259Z,101313.72
2018-08-17T11:05:41.235Z,101310.55
2018-08-17T11:08:07.212Z,101310.02
2018-08-17T11:10:33.476Z,101314.72
2018-08-17T11:12:59.481Z,101319.50
2018-08-17T11:15:33.068Z,101321.97
2018-08-17T11:18:03.514Z,101316.47
2018-08-17T11:20:31.559Z,101318.65
2018-08-17T11:22:57.605Z,101321.66
2018-08-17T11:25:23.522Z,101330.14
2018-08-17T11:27:49.499Z,101328.00
2018-08-17T11:30:15.464Z,101331.29
2018-08-17T11:32:42.534Z,101335.12
2018-08-17T11:35:08.500Z,101339.79
2018-08-17T11:37:34.462Z,101336.95
2018-08-17T11:40:00.495Z,101333.30
2018-08-17T11:42:27.387Z,101325.81
2018-08-17T11:44:53.357Z,101334.95
2018-08-17T11:47:19.951Z,101329.98
2018-08-17T11:49:46.826Z,101336.97
2018-08-17T11:52:12.922Z,101338.28
2018-08-17T11:54:38.907Z,101335.94
2018-08-17T11:57:04.883Z,101332.27
2018-08-17T11:59:30.867Z,101339.62
2018-08-17T12:01:57.116Z,101341.30
2018-08-17T12:04:23.070Z,101340.79
2018-08-17T12:06:50.106Z,101341.11
2018-08-17T12:09:16.113Z,101334.97
2018-08-17T12:11:42.192Z,101337.48
2018-08-17T12:14:08.191Z,101335.63
2018-08-17T12:16:34.222Z,101337.14
2018-08-17T12:19:01.279Z,101338.98
2018-08-17T12:21:27.265Z,101341.64
2018-08-17T12:23:53.900Z,101342.44
2018-08-17T12:26:19.898Z,101344.42
2018-08-17T12:28:45.934Z,101347.28
2018-08-17T12:31:11.897Z,101343.28
2018-08-17T12:33:37.901Z,101346.13
2018-08-17T12:36:04.724Z,101351.59
2018-08-17T12:38:31.301Z,101345.45
2018-08-17T12:40:57.309Z,101345.27
2018-08-17T12:43:23.284Z,101345.80
2018-08-17T12:45:50.004Z,101341.45
2018-08-17T12:48:16.747Z,101339.64
2018-08-17T12:50:42.782Z,101344.95
2018-08-17T12:53:08.776Z,101342.32
2018-08-17T12:55:37.011Z,101349.98
2018-08-17T12:58:03.011Z,101353.95
2018-08-17T13:00:29.180Z,101354.09
2018-08-17T13:02:55.253Z,101353.77
2018-08-17T13:05:22.365Z,101351.44
2018-08-17T13:07:48.439Z,101355.92
2018-08-17T13:10:14.538Z,101361.92
2018-08-17T13:12:40.518Z,101360.23
2018-08-17T13:15:07.536Z,101357.12
2018-08-17T13:17:34.423Z,101358.75
2018-08-17T13:20:00.448Z,101363.73
2018-08-17T13:22:26.428Z,101361.39
2018-08-17T13:24:52.410Z,101361.75
2018-08-17T13:27:18.393Z,101356.75
2018-08-17T13:29:44.429Z,101356.94
2018-08-17T13:32:10.406Z,101347.61
2018-08-17T13:34:36.395Z,101345.95
2018-08-17T13:37:02.360Z,101340.80
2018-08-17T13:39:28.413Z,101349.26
2018-08-17T13:41:54.397Z,101340.28
2018-08-17T13:44:20.378Z,101344.12
2018-08-17T13:46:46.566Z,101344.42
2018-08-17T13:49:12.651Z,101344.58
2018-08-17T13:51:38.624Z,101338.95
2018-08-17T13:54:04.628Z,101336.14
2018-08-17T13:56:30.661Z,101333.31
2018-08-17T13:58:56.625Z,101333.13
2018-08-17T14:01:22.582Z,101332.31
2018-08-17T14:03:48.561Z,101336.30
2018-08-17T14:06:14.547Z,101333.14
2018-08-17T14:08:40.530Z,101334.81
2018-08-17T14:11:06.564Z,101342.12
2018-08-17T14:13:32.531Z,101335.63
2018-08-17T14:15:58.516Z,101342.45
2018-08-17T14:18:24.484Z,101339.46
2018-08-17T14:20:50.468Z,101333.61
2018-08-17T14:23:16.438Z,101334.29
2018-08-17T14:25:42.554Z,101337.61
2018-08-17T14:28:08.527Z,101333.96
2018-08-17T14:30:34.480Z,101335.27
2018-08-17T14:33:00.456Z,101339.46
2018-08-17T14:35:26.506Z,101335.29
2018-08-17T14:37:52.472Z,101332.31
2018-08-17T14:40:18.456Z,101332.63
2018-08-17T14:42:44.573Z,101332.96
2018-08-17T14:45:10.576Z,101331.46
2018-08-17T14:47:36.591Z,101329.17
2018-08-17T14:50:02.581Z,101332.67
2018-08-17T14:52:28.608Z,101331.69
2018-08-17T14:54:54.576Z,101328.34
2018-08-17T14:57:20.552Z,101333.66
2018-08-17T14:59:46.545Z,101330.83
2018-08-17T15:02:12.519Z,101324.66
2018-08-17T15:04:38.496Z,101320.00
2018-08-17T15:07:04.562Z,101319.84
2018-08-17T15:09:30.514Z,101323.33
2018-08-17T15:11:56.485Z,101321.02
2018-08-17T15:14:22.523Z,101327.14
2018-08-17T15:16:48.496Z,101322.35
2018-08-17T15:19:14.491Z,101321.50
2018-08-17T15:21:40.500Z,101312.70
2018-08-17T15:24:06.478Z,101313.05
2018-08-17T15:26:32.450Z,101310.03
2018-08-17T15:28:58.441Z,101320.34
2018-08-17T15:31:25.081Z,101314.06
2018-08-17T15:33:51.062Z,101315.69
2018-08-17T15:36:17.030Z,101317.05
2018-08-17T15:38:43.021Z,101313.20
2018-08-17T15:41:09.280Z,101311.02
2018-08-17T15:43:35.401Z,101314.56
2018-08-17T15:46:01.356Z,101316.36
2018-08-17T15:48:27.317Z,101316.03
2018-08-17T15:50:53.300Z,101318.52
2018-08-17T15:53:20.706Z,101319.52
2018-08-17T15:55:46.778Z,101327.81
2018-08-17T15:58:12.796Z,101330.30
2018-08-17T16:00:38.875Z,101325.17
2018-08-17T16:03:04.779Z,101327.19
2018-08-17T16:05:30.764Z,101324.33
2018-08-17T16:07:56.743Z,101333.31
2018-08-17T16:10:22.755Z,101324.98
2018-08-17T16:12:48.704Z,101325.34
2018-08-17T16:15:14.712Z,101326.31
2018-08-17T16:17:40.700Z,101320.98
2018-08-17T16:20:06.796Z,101328.98
2018-08-17T16:22:32.775Z,101329.79
2018-08-17T16:24:58.747Z,101331.80
2018-08-17T16:27:24.741Z,101330.80
2018-08-17T16:29:50.738Z,101328.31
2018-08-17T16:32:16.732Z,101329.11
2018-08-17T16:34:42.694Z,101325.54
2018-08-17T16:37:08.681Z,101328.52
2018-08-17T16:39:34.638Z,101324.14
2018-08-17T16:42:00.606Z,101330.33
2018-08-17T16:44:26.577Z,101328.00
2018-08-17T16:46:52.532Z,101334.63
2018-08-17T16:49:18.493Z,101326.17
2018-08-17T16:51:44.557Z,101330.33
2018-08-17T16:54:10.527Z,101333.14
2018-08-17T16:56:36.487Z,101339.91
2018-08-17T16:59:02.500Z,101335.10
2018-08-17T17:01:28.453Z,101336.26
2018-08-17T17:03:54.419Z,101342.59
2018-08-17T17:06:20.478Z,101337.95
2018-08-17T17:08:46.428Z,101345.73
2018-08-17T17:11:12.436Z,101336.28
2018-08-17T17:13:38.430Z,101338.77
2018-08-17T17:16:04.415Z,101340.92
2018-08-17T17:18:30.381Z,101329.81
2018-08-17T17:20:56.401Z,101338.27
2018-08-17T17:23:22.316Z,101333.92
2018-08-17T17:25:48.282Z,101340.92
2018-08-17T17:28:14.267Z,101332.80
2018-08-17T17:30:40.244Z,101333.47
2018-08-17T17:33:06.228Z,101330.97
2018-08-17T17:35:32.249Z,101333.77
2018-08-17T17:37:58.222Z,101334.28
2018-08-17T17:40:24.207Z,101341.07
2018-08-17T17:42:50.170Z,101336.45
2018-08-17T17:45:16.145Z,101336.45
2018-08-17T17:47:42.128Z,101335.79
2018-08-17T17:50:08.122Z,101340.77
2018-08-17T17:52:34.193Z,101345.28
2018-08-17T17:55:00.154Z,101345.43
2018-08-17T17:57:26.118Z,101340.77
2018-08-17T17:59:52.163Z,101349.55
2018-08-17T18:02:18.139Z,101350.55
2018-08-17T18:04:44.135Z,101353.39
2018-08-17T18:07:10.100Z,101351.53
2018-08-17T18:09:36.096Z,101357.20
2018-08-17T18:12:02.101Z,101353.22
2018-08-17T18:14:28.064Z,101359.18
2018-08-17T18:16:54.004Z,101359.50
2018-08-17T18:19:20.000Z,101355.37
2018-08-17T18:21:45.982Z,101358.85
2018-08-17T18:24:11.950Z,101355.23
2018-08-17T18:26:37.904Z,101361.70
2018-08-17T18:29:03.864Z,101366.06
2018-08-17T18:31:29.841Z,101368.20
2018-08-17T18:33:55.813Z,101371.86
2018-08-17T18:36:21.769Z,101373.84
2018-08-17T18:38:47.713Z,101378.01
2018-08-17T18:41:13.685Z,101382.80
2018-08-17T18:43:39.654Z,101386.31
2018-08-17T18:46:05.661Z,101385.96
2018-08-17T18:48:31.660Z,101395.23
2018-08-17T18:50:57.633Z,101392.41
2018-08-17T18:53:23.605Z,101393.73
2018-08-17T18:55:49.592Z,101398.75
2018-08-17T18:58:15.555Z,101399.30
2018-08-17T19:00:41.600Z,101406.07
2018-08-17T19:03:07.559Z,101404.39
2018-08-17T19:05:33.531Z,101407.41
2018-08-17T19:07:59.513Z,101405.22
2018-08-17T19:10:25.505Z,101406.42
2018-08-17T19:12:51.448Z,101419.77
2018-08-17T19:15:17.420Z,101419.42
2018-08-17T19:17:43.378Z,101423.40
2018-08-17T19:20:09.360Z,101422.73
2018-08-17T19:22:35.332Z,101427.06
2018-08-17T19:25:01.287Z,101425.06
2018-08-17T19:27:27.253Z,101428.02
2018-08-17T19:29:54.172Z,101433.63
2018-08-17T19:32:20.202Z,101434.19
2018-08-17T19:34:47.511Z,101431.02
2018-08-17T19:37:13.495Z,101438.33
2018-08-17T19:39:39.463Z,101438.33
2018-08-17T19:42:05.465Z,101440.36
2018-08-17T19:44:31.398Z,101443.64
2018-08-17T19:46:57.362Z,101438.47
2018-08-17T19:49:23.362Z,101442.44
2018-08-17T19:51:49.338Z,101442.14
2018-08-17T19:54:15.324Z,101450.11
2018-08-17T19:56:41.291Z,101456.26
2018-08-17T19:59:07.285Z,101460.92
2018-08-17T20:01:33.234Z,101457.27
2018-08-17T20:03:59.215Z,101461.93
2018-08-17T20:06:25.210Z,101467.42
2018-08-17T20:08:51.307Z,101467.72
2018-08-17T20:11:17.293Z,101472.53
2018-08-17T20:13:43.316Z,101468.04
2018-08-17T20:16:09.285Z,101471.38
2018-08-17T20:18:35.252Z,101472.71
2018-08-17T20:21:01.236Z,101472.89
2018-08-17T20:23:27.194Z,101472.03
2018-08-17T20:25:53.287Z,101474.57
2018-08-17T20:28:19.157Z,101474.57
2018-08-17T20:30:45.148Z,101472.06
2018-08-17T20:33:11.133Z,101474.07
2018-08-17T20:35:37.109Z,101480.69
2018-08-17T20:38:03.089Z,101481.48
2018-08-17T20:40:29.068Z,101478.50
2018-08-17T20:42:55.029Z,101488.66
2018-08-17T20:45:20.983Z,101488.66
2018-08-17T20:47:46.964Z,101493.12
2018-08-17T20:50:12.957Z,101487.27
2018-08-17T20:52:38.961Z,101488.45
2018-08-17T20:55:05.040Z,101491.43
2018-08-17T20:57:31.090Z,101489.09
2018-08-17T20:59:57.037Z,101487.73
2018-08-17T21:02:23.063Z,101485.58
2018-08-17T21:04:49.029Z,101488.73
2018-08-17T21:07:14.991Z,101487.27
2018-08-17T21:09:40.974Z,101483.42
2018-08-17T21:12:06.936Z,101490.89
2018-08-17T21:14:32.885Z,101495.05
2018-08-17T21:16:58.860Z,101497.00
2018-08-17T21:19:24.850Z,101494.02
2018-08-17T21:21:50.897Z,101502.64
2018-08-17T21:24:16.885Z,101504.47
2018-08-17T21:26:42.849Z,101505.61
2018-08-17T21:29:08.849Z,101508.45
2018-08-17T21:31:34.799Z,101505.66
2018-08-17T21:34:00.784Z,101504.33
2018-08-17T21:36:26.744Z,101515.92
2018-08-17T21:38:52.708Z,101515.23
2018-08-17T21:41:18.688Z,101520.70
2018-08-17T21:43:44.645Z,101518.58
2018-08-17T21:46:10.591Z,101519.59
2018-08-17T21:48:36.649Z,101516.42
2018-08-17T21:51:02.598Z,101518.54
2018-08-17T21:53:28.589Z,101524.00
2018-08-17T21:55:54.603Z,101528.66
2018-08-17T21:58:20.711Z,101519.91
2018-08-17T22:00:46.687Z,101527.70
2018-08-17T22:03:12.652Z,101528.39
2018-08-17T22:05:38.619Z,101527.52
2018-08-17T22:08:04.650Z,101533.66
2018-08-17T22:10:30.616Z,101531.00
2018-08-17T22:12:56.592Z,101533.16
2018-08-17T22:15:22.543Z,101532.01
2018-08-17T22:17:48.483Z,101536.17
2018-08-17T22:20:14.450Z,101537.45
2018-08-17T22:22:40.418Z,101537.38
2018-08-17T22:25:06.405Z,101532.83
2018-08-17T22:27:32.475Z,101539.07
2018-08-17T22:29:58.495Z,101543.71
2018-08-17T22:32:24.428Z,101547.04
2018-08-17T22:34:50.417Z,101546.37
2018-08-17T22:37:16.394Z,101546.68
2018-08-17T22:39:42.364Z,101545.54
2018-08-17T22:42:08.360Z,101545.03
2018-08-17T22:44:34.296Z,101550.67
2018-08-17T22:47:00.284Z,101545.17
2018-08-17T22:49:26.371Z,101549.98
2018-08-17T22:51:52.341Z,101551.85
2018-08-17T22:54:18.284Z,101553.09
2018-08-17T22:56:44.288Z,101557.31
2018-08-17T22:59:10.244Z,101553.31
2018-08-17T23:01:36.207Z,101552.63
2018-08-17T23:04:02.184Z,101559.28
2018-08-17T23:06:28.165Z,101556.80
2018-08-17T23:08:54.097Z,101556.44
2018-08-17T23:11:20.082Z,101566.28
2018-08-17T23:13:46.063Z,101570.08
2018-08-17T23:16:12.042Z,101566.88
2018-08-17T23:18:38.243Z,101572.92
2018-08-17T23:21:04.279Z,101574.02
2018-08-17T23:23:30.252Z,101575.21
2018-08-17T23:25:56.189Z,101576.82
2018-08-17T23:28:22.157Z,101579.21
2018-08-17T23:30:48.124Z,101573.52
2018-08-17T23:33:14.089Z,101576.30
2018-08-17T23:35:40.051Z,101565.73
2018-08-17T23:38:05.996Z,101577.32
2018-08-17T23:40:31.979Z,101579.98
2018-08-17T23:42:57.937Z,101574.66
2018-08-17T23:45:23.903Z,101582.54
2018-08-17T23:47:49.863Z,101583.83
2018-08-17T23:50:15.821Z,101584.51
2018-08-17T23:52:41.767Z,101579.47
2018-08-17T23:55:07.744Z,101582.63
2018-08-17T23:57:33.723Z,101579.27
2018-08-17T23:59:59.714Z,101580.15
